地図

経路データ

SID SEASON NUMBER BASIN SUBBASIN NAME ISO_TIME NATURE LAT LON WMO_WIND WMO_PRES WMO_AGENCY TRACK_TYPE DIST2LAND LANDFALL IFLAG USA_AGENCY USA_ATCF_ID USA_LAT USA_LON USA_RECORD USA_STATUS USA_WIND USA_PRES USA_SSHS USA_R34_NE USA_R34_SE USA_R34_SW USA_R34_NW USA_R50_NE USA_R50_SE USA_R50_SW USA_R50_NW USA_R64_NE USA_R64_SE USA_R64_SW USA_R64_NW USA_POCI USA_ROCI USA_RMW USA_EYE TOKYO_LAT TOKYO_LON TOKYO_GRADE TOKYO_WIND TOKYO_PRES TOKYO_R50_DIR TOKYO_R50_LONG TOKYO_R50_SHORT TOKYO_R30_DIR TOKYO_R30_LONG TOKYO_R30_SHORT TOKYO_LAND CMA_LAT CMA_LON CMA_CAT CMA_WIND CMA_PRES HKO_LAT HKO_LON HKO_CAT HKO_WIND HKO_PRES NEWDELHI_LAT NEWDELHI_LON NEWDELHI_GRADE NEWDELHI_WIND NEWDELHI_PRES NEWDELHI_CI NEWDELHI_DP NEWDELHI_POCI REUNION_LAT REUNION_LON REUNION_TYPE REUNION_WIND REUNION_PRES REUNION_TNUM REUNION_CI REUNION_RMW REUNION_R34_NE REUNION_R34_SE REUNION_R34_SW REUNION_R34_NW REUNION_R50_NE REUNION_R50_SE REUNION_R50_SW REUNION_R50_NW REUNION_R64_NE REUNION_R64_SE REUNION_R64_SW REUNION_R64_NW BOM_LAT BOM_LON BOM_TYPE BOM_WIND BOM_PRES BOM_TNUM BOM_CI BOM_RMW BOM_R34_NE BOM_R34_SE BOM_R34_SW BOM_R34_NW BOM_R50_NE BOM_R50_SE BOM_R50_SW BOM_R50_NW BOM_R64_NE BOM_R64_SE BOM_R64_SW BOM_R64_NW BOM_ROCI BOM_POCI BOM_EYE BOM_POS_METHOD BOM_PRES_METHOD NADI_LAT NADI_LON NADI_CAT NADI_WIND NADI_PRES WELLINGTON_LAT WELLINGTON_LON WELLINGTON_WIND WELLINGTON_PRES DS824_LAT DS824_LON DS824_STAGE DS824_WIND DS824_PRES TD9636_LAT TD9636_LON TD9636_STAGE TD9636_WIND TD9636_PRES TD9635_LAT TD9635_LON TD9635_WIND TD9635_PRES TD9635_ROCI NEUMANN_LAT NEUMANN_LON NEUMANN_CLASS NEUMANN_WIND NEUMANN_PRES MLC_LAT MLC_LON MLC_CLASS MLC_WIND MLC_PRES USA_GUST BOM_GUST BOM_GUST_PER REUNION_GUST REUNION_GUST_PER USA_SEAHGT USA_SEARAD_NE USA_SEARAD_SE USA_SEARAD_SW USA_SEARAD_NW STORM_SPEED STORM_DIR
1990232N22089 1990 71 NI BB NOT_NAMED 1990-08-20 00:00:00 NR 22.0000 89.0000 16 997 newdelhi main 0 0 ____O_________ -1 22.0000 89.0000 16 997 0.00000 26 194
1990232N22089 1990 71 NI BB NOT_NAMED 1990-08-20 03:00:00 NR 20.7378 88.6733 main 102 102 ____P_________ -1 20.7378 88.6733 21 996 21 193
1990232N22089 1990 71 NI BB NOT_NAMED 1990-08-20 06:00:00 NR 20.0000 88.5000 27 996 newdelhi main 174 167 ____O_________ -1 20.0000 88.5000 27 996 0.00000 7 191
1990232N22089 1990 71 NI BB NOT_NAMED 1990-08-20 09:00:00 NR 20.0997 88.5378 main 167 123 ____P_________ -1 20.0997 88.5378 27 995 5 2
1990232N22089 1990 71 NI BB NOT_NAMED 1990-08-20 12:00:00 NR 20.5000 88.5000 27 995 newdelhi main 123 111 ____O_________ -1 20.5000 88.5000 27 995 0.00000 6 318
1990232N22089 1990 71 NI BB NOT_NAMED 1990-08-20 15:00:00 NR 20.5374 88.1124 main 116 56 ____P_________ -1 20.5374 88.1124 27 995 9 270
1990232N22089 1990 71 NI BB NOT_NAMED 1990-08-20 18:00:00 NR 20.5000 87.5000 27 995 newdelhi main 56 0 ____O_________ -1 20.5000 87.5000 27 995 0.00000 13 268
1990232N22089 1990 71 NI BB NOT_NAMED 1990-08-20 21:00:00 NR 20.5011 86.6750 main 0 0 ____P_________ -1 20.5011 86.6750 27 993 14 270
1990232N22089 1990 71 NI BB NOT_NAMED 1990-08-21 00:00:00 NR 20.5000 86.0000 27 991 newdelhi main 0 0 ____O_________ -1 20.5000 86.0000 27 991 0.00000 6 270
1990232N22089 1990 71 NI BB NOT_NAMED 1990-08-21 03:00:00 NR 20.4987 86.0375 main 0 0 ____P_________ -1 20.4987 86.0375 27 988 0 0
1990232N22089 1990 71 NI BB NOT_NAMED 1990-08-21 06:00:00 NR 20.5000 86.0000 27 986 newdelhi main 0 0 ____O_________ -1 20.5000 86.0000 27 986 0.00000 9 270
1990232N22089 1990 71 NI BB NOT_NAMED 1990-08-21 09:00:00 NR 20.5022 85.0750 main 0 0 ____P_________ -1 20.5022 85.0750 27 988 19 270
1990232N22089 1990 71 NI BB NOT_NAMED 1990-08-21 12:00:00 NR 20.5000 84.0000 27 991 newdelhi main 0 0 ____O_________ -1 20.5000 84.0000 27 991 0.00000 15 268
1990232N22089 1990 71 NI BB NOT_NAMED 1990-08-21 15:00:00 NR 20.4615 83.4247 main 0 0 ____P_________ -1 20.4615 83.4247 27 993 9 270
1990232N22089 1990 71 NI BB NOT_NAMED 1990-08-21 18:00:00 NR 20.5000 83.0000 27 996 newdelhi main 0 0 ____O_________ -1 20.5000 83.0000 27 996 0.00000 9 286
1990232N22089 1990 71 NI BB NOT_NAMED 1990-08-21 21:00:00 NR 20.7124 82.5002 main 0 0 ____P_________ -1 20.7124 82.5002 27 995 11 298
1990232N22089 1990 71 NI BB NOT_NAMED 1990-08-22 00:00:00 NR 21.0000 82.0000 27 994 newdelhi main 0 0 ____O_________ -1 21.0000 82.0000 27 994 0.00000 11 301
1990232N22089 1990 71 NI BB NOT_NAMED 1990-08-22 03:00:00 NR 21.2876 81.4628 main 0 0 ____P_________ -1 21.2876 81.4628 27 995 11 298
1990232N22089 1990 71 NI BB NOT_NAMED 1990-08-22 06:00:00 NR 21.5000 81.0000 27 996 newdelhi main 0 0 ____O_________ -1 21.5000 81.0000 27 996 0.00000 7 289
1990232N22089 1990 71 NI BB NOT_NAMED 1990-08-22 09:00:00 NR 21.4992 80.7867 main 0 0 ____P_________ -1 21.4992 80.7867 27 995 5 270
1990232N22089 1990 71 NI BB NOT_NAMED 1990-08-22 12:00:00 NR 21.5000 80.5000 27 994 newdelhi main 0 0 ____O_________ -1 21.5000 80.5000 27 994 0.00000 9 283
1990232N22089 1990 71 NI BB NOT_NAMED 1990-08-22 15:00:00 NR 21.7129 79.8254 main 0 0 ____P_________ -1 21.7129 79.8254 27 994 15 290
1990232N22089 1990 71 NI BB NOT_NAMED 1990-08-22 18:00:00 NR 22.0000 79.0000 27 995 newdelhi main 0 0 ____O_________ -1 22.0000 79.0000 27 995 0.00000 17 289
1990232N22089 1990 71 NI BB NOT_NAMED 1990-08-22 21:00:00 NR 22.2506 78.1379 main 0 0 ____P_________ -1 22.2506 78.1379 27 995 15 290
1990232N22089 1990 71 NI AS NOT_NAMED 1990-08-23 00:00:00 NR 22.5000 77.5000 27 995 newdelhi main 0 0 ____O_________ -1 22.5000 77.5000 27 995 0.00000 8 307
1990232N22089 1990 71 NI AS NOT_NAMED 1990-08-23 03:00:00 NR 22.7494 77.4242 main 0 0 ____P_________ -1 22.7494 77.4242 27 995 5 2
1990232N22089 1990 71 NI AS NOT_NAMED 1990-08-23 06:00:00 NR 23.0000 77.5000 27 996 newdelhi main 0 0 ____O_________ -1 23.0000 77.5000 27 996 0.00000 5 0
1990232N22089 1990 71 NI AS NOT_NAMED 1990-08-23 09:00:00 NR 23.2489 77.3994 main 0 0 ____P_________ -1 23.2489 77.3994 27 995 7 317
1990232N22089 1990 71 NI AS NOT_NAMED 1990-08-23 12:00:00 NR 23.5000 77.0000 27 994 newdelhi main 0 0 ____O_________ -1 23.5000 77.0000 27 994 0.00000 13 294
1990232N22089 1990 71 NI AS NOT_NAMED 1990-08-23 15:00:00 NR 23.7891 76.0762 main 0 0 ____P_________ -1 23.7891 76.0762 27 995 19 285
1990232N22089 1990 71 NI AS NOT_NAMED 1990-08-23 18:00:00 NR 24.0000 75.0000 27 996 newdelhi main 0 0 ____O_________ -1 24.0000 75.0000 27 996 0.00000 17 276
1990232N22089 1990 71 NI AS NOT_NAMED 1990-08-23 21:00:00 NR 23.9620 74.1733 main 0 0 ____P_________ -1 23.9620 74.1733 27 996 14 270
1990232N22089 1990 71 NI AS NOT_NAMED 1990-08-24 00:00:00 NR 24.0000 73.5000 27 997 newdelhi main 0 0 ____O_________ -1 24.0000 73.5000 27 997 0.00000 13 293
1990232N22089 1990 71 NI AS NOT_NAMED 1990-08-24 03:00:00 NR 24.4624 72.8889 main 0 0 ____P_________ -1 24.4624 72.8889 27 997 14 318
1990232N22089 1990 71 NI AS NOT_NAMED 1990-08-24 06:00:00 NR 25.0000 72.5000 27 997 newdelhi main 0 0 ____O_________ -1 25.0000 72.5000 27 997 0.00000 9 334
1990232N22089 1990 71 NI AS NOT_NAMED 1990-08-24 09:00:00 NR 25.2497 72.4614 main 0 0 ____P_________ -1 25.2497 72.4614 27 995 5 2
1990232N22089 1990 71 NI AS NOT_NAMED 1990-08-24 12:00:00 NR 25.5000 72.5000 27 994 newdelhi main 0 0 ____O_________ -1 25.5000 72.5000 27 994 0.00000 7 350
1990232N22089 1990 71 NI AS NOT_NAMED 1990-08-24 15:00:00 NR 25.9378 72.3263 main 0 0 ____P_________ -1 25.9378 72.3263 21 994 11 336
1990232N22089 1990 71 NI AS NOT_NAMED 1990-08-24 18:00:00 NR 26.5000 72.0000 16 995 newdelhi main 0 ____O_________ -1 26.5000 72.0000 16 995 0.00000 13 333

IBTrACS Databaseについて

本データベースは、米国NOAAが公開する1842年以降の世界の熱帯低気圧のベストトラックデータアーカイブInternational Best Track Archive for Climate Stewardship (IBTrACS)を、ウェブで閲覧しやすい形式に変換したものです。

最終更新日:2021-10-27